createdAt,value
2023-07-27T00:00:02.347Z,15.66
2023-07-27T00:15:02.010Z,15.61
2023-07-27T00:30:01.727Z,15.54
2023-07-27T00:45:02.454Z,15.52
2023-07-27T01:00:02.117Z,15.46
2023-07-27T01:15:01.716Z,15.4
2023-07-27T01:30:02.386Z,15.34
2023-07-27T01:45:01.982Z,15.29
2023-07-27T02:00:01.674Z,15.26
2023-07-27T02:15:02.357Z,15.25
2023-07-27T02:30:02.028Z,15.23
2023-07-27T02:45:01.692Z,15.25
2023-07-27T03:00:02.344Z,15.25
2023-07-27T03:15:01.963Z,15.23
2023-07-27T03:30:01.680Z,15.3
2023-07-27T03:45:02.382Z,15.35
2023-07-27T04:00:02.013Z,15.39
2023-07-27T04:15:01.639Z,15.37
2023-07-27T04:30:01.841Z,15.38
2023-07-27T04:45:02.573Z,15.37
2023-07-27T05:00:02.255Z,15.38
2023-07-27T05:15:02.007Z,15.39
2023-07-27T05:30:01.731Z,15.41
2023-07-27T05:45:02.404Z,15.41
2023-07-27T06:00:07.094Z,15.49
2023-07-27T06:15:02.330Z,15.54
2023-07-27T06:30:02.010Z,15.6
2023-07-27T06:45:01.690Z,15.63
2023-07-27T07:00:02.354Z,15.66
2023-07-27T07:15:02.125Z,15.71
2023-07-27T07:30:01.825Z,15.74
2023-07-27T07:45:02.499Z,15.78
2023-07-27T08:00:02.437Z,15.81
2023-07-27T08:15:02.396Z,15.78
2023-07-27T08:30:02.182Z,15.84
2023-07-27T08:45:01.851Z,15.91
2023-07-27T09:00:02.557Z,15.97
2023-07-27T09:15:02.245Z,16.02
2023-07-27T09:30:02.065Z,16.08
2023-07-27T09:45:01.738Z,16.19
2023-07-27T10:00:02.454Z,16.24
2023-07-27T10:15:02.091Z,16.29
2023-07-27T10:30:01.756Z,16.42
2023-07-27T10:45:02.415Z,16.6
2023-07-27T11:00:02.085Z,16.82
2023-07-27T11:15:01.806Z,17.01
2023-07-27T11:30:02.470Z,17.18
2023-07-27T11:45:02.147Z,17.29
2023-07-27T12:00:01.832Z,17.48
2023-07-27T12:15:02.490Z,17.66
2023-07-27T12:30:21.099Z,17.79
2023-07-27T12:45:02.007Z,17.89
2023-07-27T13:00:01.670Z,18.1
2023-07-27T13:15:02.338Z,18.37
2023-07-27T13:30:02.134Z,18.57
2023-07-27T13:45:01.774Z,18.71
2023-07-27T14:00:02.481Z,18.79
2023-07-27T14:15:02.096Z,18.84
2023-07-27T14:30:01.883Z,18.92
2023-07-27T14:45:02.589Z,18.99
2023-07-27T15:15:01.839Z,19.05
2023-07-27T15:30:02.576Z,19.07
2023-07-27T15:45:02.227Z,19.07
2023-07-27T16:00:01.940Z,19.09
2023-07-27T16:15:01.620Z,19.13
2023-07-27T16:30:02.314Z,19.13
2023-07-27T16:45:01.977Z,19.14
2023-07-27T17:00:01.694Z,19.17
2023-07-27T17:15:02.311Z,19.16
2023-07-27T17:30:01.962Z,19.23
2023-07-27T17:45:01.619Z,19.28
2023-07-27T18:00:02.295Z,19.29
2023-07-27T18:15:01.921Z,19.29
2023-07-27T18:30:01.662Z,19.29
2023-07-27T18:45:02.363Z,19.27
2023-07-27T19:00:01.995Z,19.28
2023-07-27T19:15:01.672Z,19.26
2023-07-27T19:30:02.467Z,19.21
2023-07-27T19:45:02.117Z,19.18
2023-07-27T20:00:01.782Z,19.16
2023-07-27T20:15:02.476Z,19.08
2023-07-27T20:30:02.153Z,19.04
2023-07-27T20:45:01.843Z,18.99
2023-07-27T21:00:02.561Z,18.93
2023-07-27T21:15:02.219Z,18.88
2023-07-27T21:30:01.874Z,18.8
2023-07-27T21:45:02.537Z,18.75
2023-07-27T22:00:02.170Z,18.71
2023-07-27T22:15:01.885Z,18.66
2023-07-27T22:30:01.628Z,18.62
2023-07-27T22:45:02.326Z,18.57
2023-07-27T23:00:02.006Z,18.56
2023-07-27T23:15:03.746Z,18.52
2023-07-27T23:30:01.994Z,18.51
2023-07-27T23:45:01.721Z,18.41
